sensor_id;sensor_type;location;lat;lon;timestamp;P1;durP1;ratioP1;P2;durP2;ratioP2
37641;SDS011;23486;51.956;5.888;2023-08-01T00:00:00;8.15;;;4.57;;
37641;SDS011;23486;51.956;5.888;2023-08-01T00:02:28;8.23;;;4.20;;
37641;SDS011;23486;51.956;5.888;2023-08-01T00:04:53;8.93;;;5.00;;
37641;SDS011;23486;51.956;5.888;2023-08-01T00:07:19;11.18;;;5.55;;
37641;SDS011;23486;51.956;5.888;2023-08-01T00:09:44;10.32;;;5.20;;
37641;SDS011;23486;51.956;5.888;2023-08-01T00:12:10;8.32;;;4.72;;
37641;SDS011;23486;51.956;5.888;2023-08-01T00:14:36;9.95;;;5.55;;
37641;SDS011;23486;51.956;5.888;2023-08-01T00:17:01;12.30;;;6.20;;
37641;SDS011;23486;51.956;5.888;2023-08-01T00:19:27;13.60;;;6.32;;
37641;SDS011;23486;51.956;5.888;2023-08-01T00:21:53;11.40;;;6.00;;
37641;SDS011;23486;51.956;5.888;2023-08-01T00:24:19;9.13;;;5.40;;
37641;SDS011;23486;51.956;5.888;2023-08-01T00:26:44;10.77;;;5.72;;
37641;SDS011;23486;51.956;5.888;2023-08-01T00:29:10;9.20;;;5.90;;
37641;SDS011;23486;51.956;5.888;2023-08-01T00:31:36;12.85;;;6.30;;
37641;SDS011;23486;51.956;5.888;2023-08-01T00:34:01;7.20;;;4.25;;
37641;SDS011;23486;51.956;5.888;2023-08-01T00:36:27;7.90;;;5.30;;
37641;SDS011;23486;51.956;5.888;2023-08-01T00:38:52;9.52;;;4.45;;
37641;SDS011;23486;51.956;5.888;2023-08-01T00:41:18;7.32;;;3.38;;
37641;SDS011;23486;51.956;5.888;2023-08-01T00:43:44;9.52;;;3.53;;
37641;SDS011;23486;51.956;5.888;2023-08-01T00:46:09;5.57;;;2.65;;
37641;SDS011;23486;51.956;5.888;2023-08-01T00:48:35;7.78;;;2.90;;
37641;SDS011;23486;51.956;5.888;2023-08-01T00:51:03;5.25;;;2.75;;
37641;SDS011;23486;51.956;5.888;2023-08-01T00:53:30;6.85;;;3.13;;
37641;SDS011;23486;51.956;5.888;2023-08-01T00:55:56;7.88;;;2.90;;
37641;SDS011;23486;51.956;5.888;2023-08-01T00:58:23;6.15;;;2.20;;
37641;SDS011;23486;51.956;5.888;2023-08-01T01:00:48;5.50;;;1.65;;
37641;SDS011;23486;51.956;5.888;2023-08-01T01:03:14;5.28;;;2.55;;
37641;SDS011;23486;51.956;5.888;2023-08-01T01:05:43;4.63;;;1.83;;
37641;SDS011;23486;51.956;5.888;2023-08-01T01:08:22;7.60;;;2.22;;
37641;SDS011;23486;51.956;5.888;2023-08-01T01:10:48;5.00;;;1.85;;
37641;SDS011;23486;51.956;5.888;2023-08-01T01:13:13;7.78;;;2.40;;
37641;SDS011;23486;51.956;5.888;2023-08-01T01:15:39;9.88;;;3.17;;
37641;SDS011;23486;51.956;5.888;2023-08-01T01:18:04;5.60;;;2.63;;
37641;SDS011;23486;51.956;5.888;2023-08-01T01:20:33;6.15;;;2.35;;
37641;SDS011;23486;51.956;5.888;2023-08-01T01:23:00;5.30;;;2.47;;
37641;SDS011;23486;51.956;5.888;2023-08-01T01:25:28;4.90;;;1.98;;
37641;SDS011;23486;51.956;5.888;2023-08-01T01:27:54;5.88;;;2.33;;
37641;SDS011;23486;51.956;5.888;2023-08-01T01:30:21;6.53;;;2.30;;
37641;SDS011;23486;51.956;5.888;2023-08-01T01:32:47;5.70;;;2.30;;
37641;SDS011;23486;51.956;5.888;2023-08-01T01:35:14;8.75;;;2.97;;
37641;SDS011;23486;51.956;5.888;2023-08-01T01:37:39;5.82;;;3.05;;
37641;SDS011;23486;51.956;5.888;2023-08-01T01:40:05;5.63;;;2.92;;
37641;SDS011;23486;51.956;5.888;2023-08-01T01:42:31;5.93;;;3.42;;
37641;SDS011;23486;51.956;5.888;2023-08-01T01:44:57;7.53;;;4.07;;
37641;SDS011;23486;51.956;5.888;2023-08-01T01:47:23;6.45;;;3.88;;
37641;SDS011;23486;51.956;5.888;2023-08-01T01:49:48;7.90;;;4.18;;
37641;SDS011;23486;51.956;5.888;2023-08-01T01:52:14;8.93;;;3.88;;
37641;SDS011;23486;51.956;5.888;2023-08-01T01:54:39;9.10;;;4.40;;
37641;SDS011;23486;51.956;5.888;2023-08-01T01:57:05;8.68;;;4.63;;
37641;SDS011;23486;51.956;5.888;2023-08-01T01:59:31;7.88;;;3.60;;
37641;SDS011;23486;51.956;5.888;2023-08-01T02:01:56;10.02;;;4.05;;
37641;SDS011;23486;51.956;5.888;2023-08-01T02:04:22;8.55;;;4.03;;
37641;SDS011;23486;51.956;5.888;2023-08-01T02:06:47;8.30;;;4.10;;
37641;SDS011;23486;51.956;5.888;2023-08-01T02:09:13;7.95;;;3.63;;
37641;SDS011;23486;51.956;5.888;2023-08-01T02:11:39;6.78;;;3.75;;
37641;SDS011;23486;51.956;5.888;2023-08-01T02:14:04;9.82;;;4.85;;
37641;SDS011;23486;51.956;5.888;2023-08-01T02:16:30;10.32;;;4.55;;
37641;SDS011;23486;51.956;5.888;2023-08-01T02:18:56;6.13;;;3.50;;
37641;SDS011;23486;51.956;5.888;2023-08-01T02:21:21;13.88;;;5.13;;
37641;SDS011;23486;51.956;5.888;2023-08-01T02:23:47;11.40;;;5.10;;
37641;SDS011;23486;51.956;5.888;2023-08-01T02:26:12;11.07;;;4.78;;
37641;SDS011;23486;51.956;5.888;2023-08-01T02:28:38;9.93;;;5.55;;
37641;SDS011;23486;51.956;5.888;2023-08-01T02:31:04;11.05;;;5.40;;
37641;SDS011;23486;51.956;5.888;2023-08-01T02:33:30;11.35;;;5.65;;
37641;SDS011;23486;51.956;5.888;2023-08-01T02:35:55;12.27;;;6.18;;
37641;SDS011;23486;51.956;5.888;2023-08-01T02:38:21;12.88;;;6.28;;
37641;SDS011;23486;51.956;5.888;2023-08-01T02:40:46;13.70;;;6.85;;
37641;SDS011;23486;51.956;5.888;2023-08-01T02:43:12;8.48;;;5.75;;
37641;SDS011;23486;51.956;5.888;2023-08-01T02:45:38;14.02;;;6.53;;
37641;SDS011;23486;51.956;5.888;2023-08-01T02:48:03;13.57;;;5.95;;
37641;SDS011;23486;51.956;5.888;2023-08-01T02:50:29;12.57;;;6.38;;
37641;SDS011;23486;51.956;5.888;2023-08-01T02:52:54;13.63;;;6.70;;
37641;SDS011;23486;51.956;5.888;2023-08-01T02:55:20;20.48;;;7.50;;
37641;SDS011;23486;51.956;5.888;2023-08-01T02:57:46;14.18;;;6.78;;
37641;SDS011;23486;51.956;5.888;2023-08-01T03:00:11;16.48;;;7.45;;
37641;SDS011;23486;51.956;5.888;2023-08-01T03:02:38;16.77;;;7.28;;
37641;SDS011;23486;51.956;5.888;2023-08-01T03:05:05;18.38;;;6.65;;
37641;SDS011;23486;51.956;5.888;2023-08-01T03:07:33;13.98;;;7.40;;
37641;SDS011;23486;51.956;5.888;2023-08-01T03:09:58;15.70;;;6.25;;
37641;SDS011;23486;51.956;5.888;2023-08-01T03:12:24;17.25;;;6.25;;
37641;SDS011;23486;51.956;5.888;2023-08-01T03:14:50;13.55;;;5.95;;
37641;SDS011;23486;51.956;5.888;2023-08-01T03:17:15;12.35;;;5.85;;
37641;SDS011;23486;51.956;5.888;2023-08-01T03:19:41;13.75;;;5.85;;
37641;SDS011;23486;51.956;5.888;2023-08-01T03:22:07;11.35;;;5.80;;
37641;SDS011;23486;51.956;5.888;2023-08-01T03:24:34;16.95;;;5.85;;
37641;SDS011;23486;51.956;5.888;2023-08-01T03:27:00;11.13;;;5.00;;
37641;SDS011;23486;51.956;5.888;2023-08-01T03:29:25;12.55;;;5.80;;
37641;SDS011;23486;51.956;5.888;2023-08-01T03:31:51;14.05;;;5.22;;
37641;SDS011;23486;51.956;5.888;2023-08-01T03:34:18;13.38;;;6.07;;
37641;SDS011;23486;51.956;5.888;2023-08-01T03:36:43;9.77;;;5.32;;
37641;SDS011;23486;51.956;5.888;2023-08-01T03:39:09;13.23;;;5.80;;
37641;SDS011;23486;51.956;5.888;2023-08-01T03:41:35;13.20;;;6.00;;
37641;SDS011;23486;51.956;5.888;2023-08-01T03:44:02;12.30;;;5.97;;
37641;SDS011;23486;51.956;5.888;2023-08-01T03:46:28;13.60;;;5.50;;
37641;SDS011;23486;51.956;5.888;2023-08-01T03:48:53;13.63;;;6.43;;
37641;SDS011;23486;51.956;5.888;2023-08-01T03:51:19;14.20;;;5.93;;
37641;SDS011;23486;51.956;5.888;2023-08-01T03:53:45;17.73;;;7.22;;
37641;SDS011;23486;51.956;5.888;2023-08-01T03:56:11;19.67;;;7.05;;
37641;SDS011;23486;51.956;5.888;2023-08-01T03:58:37;13.48;;;6.53;;
37641;SDS011;23486;51.956;5.888;2023-08-01T04:01:02;16.42;;;6.15;;
37641;SDS011;23486;51.956;5.888;2023-08-01T04:03:28;15.07;;;6.10;;
37641;SDS011;23486;51.956;5.888;2023-08-01T04:05:54;14.10;;;5.47;;
37641;SDS011;23486;51.956;5.888;2023-08-01T04:08:19;16.83;;;6.70;;
37641;SDS011;23486;51.956;5.888;2023-08-01T04:10:45;16.58;;;4.80;;
37641;SDS011;23486;51.956;5.888;2023-08-01T04:13:11;13.32;;;4.80;;
37641;SDS011;23486;51.956;5.888;2023-08-01T04:15:36;14.77;;;6.25;;
37641;SDS011;23486;51.956;5.888;2023-08-01T04:18:02;12.52;;;5.13;;
37641;SDS011;23486;51.956;5.888;2023-08-01T04:20:29;21.92;;;5.28;;
37641;SDS011;23486;51.956;5.888;2023-08-01T04:22:54;14.82;;;5.63;;
37641;SDS011;23486;51.956;5.888;2023-08-01T04:25:20;17.30;;;5.95;;
37641;SDS011;23486;51.956;5.888;2023-08-01T04:27:48;13.40;;;5.28;;
37641;SDS011;23486;51.956;5.888;2023-08-01T04:30:14;18.50;;;6.10;;
37641;SDS011;23486;51.956;5.888;2023-08-01T04:32:40;15.32;;;6.32;;
37641;SDS011;23486;51.956;5.888;2023-08-01T04:35:05;19.38;;;6.47;;
37641;SDS011;23486;51.956;5.888;2023-08-01T04:37:31;11.20;;;5.03;;
37641;SDS011;23486;51.956;5.888;2023-08-01T04:39:57;16.33;;;5.18;;
37641;SDS011;23486;51.956;5.888;2023-08-01T04:42:23;12.52;;;4.55;;
37641;SDS011;23486;51.956;5.888;2023-08-01T04:44:48;16.75;;;5.72;;
37641;SDS011;23486;51.956;5.888;2023-08-01T04:47:14;20.40;;;6.43;;
37641;SDS011;23486;51.956;5.888;2023-08-01T04:49:39;17.75;;;6.32;;
37641;SDS011;23486;51.956;5.888;2023-08-01T04:52:05;14.80;;;4.93;;
37641;SDS011;23486;51.956;5.888;2023-08-01T04:54:31;18.73;;;5.85;;
37641;SDS011;23486;51.956;5.888;2023-08-01T04:56:57;16.45;;;6.15;;
37641;SDS011;23486;51.956;5.888;2023-08-01T04:59:22;14.52;;;5.15;;
37641;SDS011;23486;51.956;5.888;2023-08-01T05:01:48;14.95;;;5.38;;
37641;SDS011;23486;51.956;5.888;2023-08-01T05:04:13;19.40;;;5.47;;
37641;SDS011;23486;51.956;5.888;2023-08-01T05:06:39;15.70;;;5.60;;
37641;SDS011;23486;51.956;5.888;2023-08-01T05:09:05;15.77;;;5.65;;
37641;SDS011;23486;51.956;5.888;2023-08-01T05:11:31;13.07;;;6.47;;
37641;SDS011;23486;51.956;5.888;2023-08-01T05:13:57;15.25;;;5.32;;
37641;SDS011;23486;51.956;5.888;2023-08-01T05:16:23;14.75;;;6.20;;
37641;SDS011;23486;51.956;5.888;2023-08-01T05:18:48;12.25;;;5.47;;
37641;SDS011;23486;51.956;5.888;2023-08-01T05:21:14;13.35;;;5.32;;
37641;SDS011;23486;51.956;5.888;2023-08-01T05:23:39;11.45;;;5.15;;
37641;SDS011;23486;51.956;5.888;2023-08-01T05:26:05;16.05;;;6.45;;
37641;SDS011;23486;51.956;5.888;2023-08-01T05:28:31;13.65;;;6.10;;
37641;SDS011;23486;51.956;5.888;2023-08-01T05:30:56;19.85;;;6.45;;
37641;SDS011;23486;51.956;5.888;2023-08-01T05:33:22;16.17;;;6.18;;
37641;SDS011;23486;51.956;5.888;2023-08-01T05:35:50;15.15;;;5.93;;
37641;SDS011;23486;51.956;5.888;2023-08-01T05:38:16;18.05;;;6.53;;
37641;SDS011;23486;51.956;5.888;2023-08-01T05:40:41;11.88;;;6.90;;
37641;SDS011;23486;51.956;5.888;2023-08-01T05:43:07;22.65;;;7.18;;
37641;SDS011;23486;51.956;5.888;2023-08-01T05:45:33;17.50;;;8.00;;
37641;SDS011;23486;51.956;5.888;2023-08-01T05:48:00;17.98;;;6.35;;
37641;SDS011;23486;51.956;5.888;2023-08-01T05:50:26;15.10;;;6.97;;
37641;SDS011;23486;51.956;5.888;2023-08-01T05:52:51;16.67;;;7.57;;
37641;SDS011;23486;51.956;5.888;2023-08-01T05:55:17;14.93;;;7.88;;
37641;SDS011;23486;51.956;5.888;2023-08-01T05:57:42;16.05;;;7.97;;
37641;SDS011;23486;51.956;5.888;2023-08-01T06:00:08;15.90;;;7.85;;
37641;SDS011;23486;51.956;5.888;2023-08-01T06:02:34;20.25;;;7.97;;
37641;SDS011;23486;51.956;5.888;2023-08-01T06:05:00;16.02;;;7.97;;
37641;SDS011;23486;51.956;5.888;2023-08-01T06:07:25;19.70;;;8.20;;
37641;SDS011;23486;51.956;5.888;2023-08-01T06:09:51;15.60;;;7.68;;
37641;SDS011;23486;51.956;5.888;2023-08-01T06:12:17;14.00;;;6.45;;
37641;SDS011;23486;51.956;5.888;2023-08-01T06:14:43;14.25;;;7.03;;
37641;SDS011;23486;51.956;5.888;2023-08-01T06:17:09;20.25;;;7.40;;
37641;SDS011;23486;51.956;5.888;2023-08-01T06:19:35;15.10;;;6.82;;
37641;SDS011;23486;51.956;5.888;2023-08-01T06:22:00;14.15;;;6.25;;
37641;SDS011;23486;51.956;5.888;2023-08-01T06:24:26;16.58;;;6.32;;
37641;SDS011;23486;51.956;5.888;2023-08-01T06:26:52;13.15;;;6.43;;
37641;SDS011;23486;51.956;5.888;2023-08-01T06:29:17;14.38;;;6.47;;
37641;SDS011;23486;51.956;5.888;2023-08-01T06:31:43;18.52;;;6.90;;
37641;SDS011;23486;51.956;5.888;2023-08-01T06:34:09;14.32;;;5.55;;
37641;SDS011;23486;51.956;5.888;2023-08-01T06:36:34;11.57;;;5.20;;
37641;SDS011;23486;51.956;5.888;2023-08-01T06:39:00;14.55;;;6.60;;
37641;SDS011;23486;51.956;5.888;2023-08-01T06:41:26;11.30;;;5.07;;
37641;SDS011;23486;51.956;5.888;2023-08-01T06:43:52;12.63;;;4.85;;
37641;SDS011;23486;51.956;5.888;2023-08-01T06:46:17;12.88;;;5.15;;
37641;SDS011;23486;51.956;5.888;2023-08-01T06:48:43;14.63;;;5.25;;
37641;SDS011;23486;51.956;5.888;2023-08-01T06:51:08;11.50;;;4.53;;
37641;SDS011;23486;51.956;5.888;2023-08-01T06:53:34;11.95;;;5.45;;
37641;SDS011;23486;51.956;5.888;2023-08-01T06:56:00;11.23;;;4.72;;
37641;SDS011;23486;51.956;5.888;2023-08-01T06:58:25;11.85;;;4.47;;
37641;SDS011;23486;51.956;5.888;2023-08-01T07:00:51;11.50;;;4.93;;
37641;SDS011;23486;51.956;5.888;2023-08-01T07:03:16;16.00;;;4.60;;
37641;SDS011;23486;51.956;5.888;2023-08-01T07:05:42;8.93;;;4.15;;
37641;SDS011;23486;51.956;5.888;2023-08-01T07:08:07;16.45;;;5.03;;
37641;SDS011;23486;51.956;5.888;2023-08-01T07:10:36;11.98;;;4.07;;
37641;SDS011;23486;51.956;5.888;2023-08-01T07:13:02;11.13;;;4.53;;
37641;SDS011;23486;51.956;5.888;2023-08-01T07:15:29;10.60;;;3.92;;
37641;SDS011;23486;51.956;5.888;2023-08-01T07:17:56;12.20;;;3.75;;
37641;SDS011;23486;51.956;5.888;2023-08-01T07:20:22;15.20;;;3.85;;
37641;SDS011;23486;51.956;5.888;2023-08-01T07:22:47;13.40;;;3.72;;
37641;SDS011;23486;51.956;5.888;2023-08-01T07:25:13;10.70;;;3.90;;
37641;SDS011;23486;51.956;5.888;2023-08-01T07:27:39;13.00;;;3.92;;
37641;SDS011;23486;51.956;5.888;2023-08-01T07:30:05;16.13;;;3.45;;
37641;SDS011;23486;51.956;5.888;2023-08-01T07:32:31;9.57;;;2.58;;
37641;SDS011;23486;51.956;5.888;2023-08-01T07:34:57;8.50;;;2.50;;
37641;SDS011;23486;51.956;5.888;2023-08-01T07:37:22;9.77;;;2.00;;
37641;SDS011;23486;51.956;5.888;2023-08-01T07:39:49;10.98;;;2.42;;
37641;SDS011;23486;51.956;5.888;2023-08-01T07:42:15;5.85;;;1.90;;
37641;SDS011;23486;51.956;5.888;2023-08-01T07:44:40;9.85;;;2.15;;
37641;SDS011;23486;51.956;5.888;2023-08-01T07:47:06;7.40;;;2.05;;
37641;SDS011;23486;51.956;5.888;2023-08-01T07:49:31;8.75;;;1.55;;
37641;SDS011;23486;51.956;5.888;2023-08-01T07:51:58;6.15;;;1.52;;
37641;SDS011;23486;51.956;5.888;2023-08-01T07:54:24;9.50;;;1.50;;
37641;SDS011;23486;51.956;5.888;2023-08-01T07:56:50;8.80;;;1.40;;
37641;SDS011;23486;51.956;5.888;2023-08-01T07:59:15;8.15;;;1.85;;
37641;SDS011;23486;51.956;5.888;2023-08-01T08:01:41;12.38;;;2.83;;
37641;SDS011;23486;51.956;5.888;2023-08-01T08:04:07;7.35;;;1.92;;
37641;SDS011;23486;51.956;5.888;2023-08-01T08:06:32;5.57;;;2.08;;
37641;SDS011;23486;51.956;5.888;2023-08-01T08:08:58;7.05;;;2.03;;
37641;SDS011;23486;51.956;5.888;2023-08-01T08:11:23;12.15;;;2.17;;
37641;SDS011;23486;51.956;5.888;2023-08-01T08:13:49;8.88;;;1.88;;
37641;SDS011;23486;51.956;5.888;2023-08-01T08:16:15;8.75;;;1.95;;
37641;SDS011;23486;51.956;5.888;2023-08-01T08:18:41;9.90;;;1.70;;
37641;SDS011;23486;51.956;5.888;2023-08-01T08:21:06;7.03;;;1.48;;
37641;SDS011;23486;51.956;5.888;2023-08-01T08:23:32;7.38;;;1.52;;
37641;SDS011;23486;51.956;5.888;2023-08-01T08:25:57;6.57;;;1.48;;
37641;SDS011;23486;51.956;5.888;2023-08-01T08:28:27;9.35;;;2.50;;
37641;SDS011;23486;51.956;5.888;2023-08-01T08:30:54;7.93;;;2.20;;
37641;SDS011;23486;51.956;5.888;2023-08-01T08:33:20;9.45;;;1.80;;
37641;SDS011;23486;51.956;5.888;2023-08-01T08:35:46;7.55;;;1.70;;
37641;SDS011;23486;51.956;5.888;2023-08-01T08:38:12;9.10;;;2.50;;
37641;SDS011;23486;51.956;5.888;2023-08-01T08:40:39;8.30;;;2.00;;
37641;SDS011;23486;51.956;5.888;2023-08-01T08:43:08;5.90;;;1.77;;
37641;SDS011;23486;51.956;5.888;2023-08-01T08:45:35;4.82;;;2.00;;
37641;SDS011;23486;51.956;5.888;2023-08-01T08:48:01;5.80;;;1.90;;
37641;SDS011;23486;51.956;5.888;2023-08-01T08:50:32;7.65;;;1.80;;
37641;SDS011;23486;51.956;5.888;2023-08-01T08:53:00;6.65;;;2.22;;
37641;SDS011;23486;51.956;5.888;2023-08-01T08:55:26;7.32;;;1.63;;
37641;SDS011;23486;51.956;5.888;2023-08-01T08:57:53;7.22;;;1.75;;
37641;SDS011;23486;51.956;5.888;2023-08-01T09:00:20;7.13;;;1.02;;
37641;SDS011;23486;51.956;5.888;2023-08-01T09:02:46;5.28;;;1.60;;
37641;SDS011;23486;51.956;5.888;2023-08-01T09:05:12;6.35;;;1.50;;
37641;SDS011;23486;51.956;5.888;2023-08-01T09:07:39;4.35;;;1.10;;
37641;SDS011;23486;51.956;5.888;2023-08-01T09:10:07;9.23;;;1.60;;
37641;SDS011;23486;51.956;5.888;2023-08-01T09:12:36;6.93;;;0.90;;
37641;SDS011;23486;51.956;5.888;2023-08-01T09:15:01;5.40;;;0.90;;
37641;SDS011;23486;51.956;5.888;2023-08-01T09:17:27;4.13;;;0.80;;
37641;SDS011;23486;51.956;5.888;2023-08-01T09:20:03;4.40;;;1.25;;
37641;SDS011;23486;51.956;5.888;2023-08-01T09:22:45;5.18;;;1.05;;
37641;SDS011;23486;51.956;5.888;2023-08-01T09:25:11;2.67;;;0.68;;
37641;SDS011;23486;51.956;5.888;2023-08-01T09:27:38;7.18;;;0.98;;
37641;SDS011;23486;51.956;5.888;2023-08-01T09:30:07;7.55;;;0.90;;
37641;SDS011;23486;51.956;5.888;2023-08-01T09:32:39;6.07;;;0.93;;
37641;SDS011;23486;51.956;5.888;2023-08-01T09:35:05;5.63;;;0.73;;
37641;SDS011;23486;51.956;5.888;2023-08-01T09:37:41;3.33;;;0.70;;
37641;SDS011;23486;51.956;5.888;2023-08-01T09:40:10;4.68;;;0.63;;
37641;SDS011;23486;51.956;5.888;2023-08-01T09:42:43;3.22;;;0.70;;
37641;SDS011;23486;51.956;5.888;2023-08-01T09:45:13;4.85;;;0.60;;
37641;SDS011;23486;51.956;5.888;2023-08-01T09:47:40;2.20;;;0.50;;
37641;SDS011;23486;51.956;5.888;2023-08-01T09:50:08;2.58;;;0.50;;
37641;SDS011;23486;51.956;5.888;2023-08-01T09:52:34;5.13;;;0.70;;
37641;SDS011;23486;51.956;5.888;2023-08-01T09:55:00;5.40;;;0.70;;
37641;SDS011;23486;51.956;5.888;2023-08-01T09:57:28;5.65;;;0.85;;
37641;SDS011;23486;51.956;5.888;2023-08-01T09:59:58;7.05;;;0.90;;
37641;SDS011;23486;51.956;5.888;2023-08-01T10:02:25;3.88;;;0.60;;
37641;SDS011;23486;51.956;5.888;2023-08-01T10:04:54;4.80;;;0.80;;
37641;SDS011;23486;51.956;5.888;2023-08-01T10:07:23;6.05;;;1.30;;
37641;SDS011;23486;51.956;5.888;2023-08-01T10:09:51;6.20;;;0.60;;
37641;SDS011;23486;51.956;5.888;2023-08-01T10:12:20;2.15;;;0.50;;
37641;SDS011;23486;51.956;5.888;2023-08-01T10:14:47;5.20;;;0.73;;
37641;SDS011;23486;51.956;5.888;2023-08-01T10:17:14;4.32;;;1.08;;
37641;SDS011;23486;51.956;5.888;2023-08-01T10:19:42;7.43;;;0.65;;
37641;SDS011;23486;51.956;5.888;2023-08-01T10:22:07;4.00;;;0.70;;
37641;SDS011;23486;51.956;5.888;2023-08-01T10:24:34;3.05;;;0.75;;
37641;SDS011;23486;51.956;5.888;2023-08-01T10:27:10;5.60;;;0.88;;
37641;SDS011;23486;51.956;5.888;2023-08-01T10:29:37;5.47;;;0.88;;
37641;SDS011;23486;51.956;5.888;2023-08-01T10:32:03;6.47;;;0.80;;
37641;SDS011;23486;51.956;5.888;2023-08-01T10:34:32;3.83;;;0.82;;
37641;SDS011;23486;51.956;5.888;2023-08-01T10:36:57;2.60;;;0.40;;
37641;SDS011;23486;51.956;5.888;2023-08-01T10:39:24;4.85;;;0.55;;
37641;SDS011;23486;51.956;5.888;2023-08-01T10:42:00;4.15;;;0.55;;
37641;SDS011;23486;51.956;5.888;2023-08-01T10:44:30;6.47;;;0.60;;
37641;SDS011;23486;51.956;5.888;2023-08-01T10:46:59;4.05;;;0.65;;
37641;SDS011;23486;51.956;5.888;2023-08-01T10:49:38;6.03;;;0.70;;
37641;SDS011;23486;51.956;5.888;2023-08-01T10:52:25;4.40;;;0.55;;
37641;SDS011;23486;51.956;5.888;2023-08-01T10:54:57;4.03;;;1.15;;
37641;SDS011;23486;51.956;5.888;2023-08-01T10:57:28;8.82;;;0.90;;
37641;SDS011;23486;51.956;5.888;2023-08-01T10:59:54;6.53;;;0.77;;
37641;SDS011;23486;51.956;5.888;2023-08-01T11:02:25;4.30;;;0.60;;
37641;SDS011;23486;51.956;5.888;2023-08-01T11:04:58;4.50;;;0.70;;
37641;SDS011;23486;51.956;5.888;2023-08-01T11:10:03;3.35;;;0.60;;
37641;SDS011;23486;51.956;5.888;2023-08-01T11:12:31;5.28;;;0.80;;
37641;SDS011;23486;51.956;5.888;2023-08-01T11:14:59;4.38;;;0.57;;
37641;SDS011;23486;51.956;5.888;2023-08-01T11:17:25;2.33;;;0.50;;
37641;SDS011;23486;51.956;5.888;2023-08-01T11:19:51;5.13;;;0.65;;
37641;SDS011;23486;51.956;5.888;2023-08-01T11:22:17;4.07;;;0.52;;
37641;SDS011;23486;51.956;5.888;2023-08-01T11:24:49;7.03;;;0.70;;
37641;SDS011;23486;51.956;5.888;2023-08-01T11:27:15;6.55;;;0.77;;
37641;SDS011;23486;51.956;5.888;2023-08-01T11:29:41;6.53;;;0.60;;
37641;SDS011;23486;51.956;5.888;2023-08-01T11:32:06;7.55;;;1.13;;
37641;SDS011;23486;51.956;5.888;2023-08-01T11:34:39;4.88;;;0.80;;
37641;SDS011;23486;51.956;5.888;2023-08-01T11:37:06;6.95;;;0.73;;
37641;SDS011;23486;51.956;5.888;2023-08-01T11:39:32;4.15;;;0.63;;
37641;SDS011;23486;51.956;5.888;2023-08-01T11:41:58;6.78;;;1.33;;
37641;SDS011;23486;51.956;5.888;2023-08-01T11:44:25;2.35;;;0.52;;
37641;SDS011;23486;51.956;5.888;2023-08-01T11:46:51;3.45;;;0.57;;
37641;SDS011;23486;51.956;5.888;2023-08-01T11:49:16;5.10;;;0.50;;
37641;SDS011;23486;51.956;5.888;2023-08-01T11:51:43;4.97;;;0.80;;
37641;SDS011;23486;51.956;5.888;2023-08-01T11:54:09;2.50;;;0.40;;
37641;SDS011;23486;51.956;5.888;2023-08-01T11:56:36;4.10;;;0.63;;
37641;SDS011;23486;51.956;5.888;2023-08-01T11:59:13;5.97;;;0.70;;
37641;SDS011;23486;51.956;5.888;2023-08-01T12:01:41;2.70;;;0.40;;
37641;SDS011;23486;51.956;5.888;2023-08-01T12:04:11;4.05;;;0.60;;
37641;SDS011;23486;51.956;5.888;2023-08-01T12:06:37;4.32;;;0.47;;
37641;SDS011;23486;51.956;5.888;2023-08-01T12:09:10;2.05;;;0.40;;
37641;SDS011;23486;51.956;5.888;2023-08-01T12:11:38;3.00;;;0.40;;
37641;SDS011;23486;51.956;5.888;2023-08-01T12:14:09;3.88;;;0.40;;
37641;SDS011;23486;51.956;5.888;2023-08-01T12:16:37;5.68;;;0.50;;
37641;SDS011;23486;51.956;5.888;2023-08-01T12:19:03;3.72;;;0.30;;
37641;SDS011;23486;51.956;5.888;2023-08-01T12:21:30;2.10;;;0.40;;
37641;SDS011;23486;51.956;5.888;2023-08-01T12:23:57;2.50;;;0.40;;
37641;SDS011;23486;51.956;5.888;2023-08-01T12:26:23;3.42;;;0.35;;
37641;SDS011;23486;51.956;5.888;2023-08-01T12:28:49;4.07;;;0.30;;
37641;SDS011;23486;51.956;5.888;2023-08-01T12:31:18;4.57;;;0.50;;
37641;SDS011;23486;51.956;5.888;2023-08-01T12:33:45;3.78;;;0.60;;
37641;SDS011;23486;51.956;5.888;2023-08-01T12:36:11;7.00;;;0.73;;
37641;SDS011;23486;51.956;5.888;2023-08-01T12:38:37;3.70;;;0.40;;
37641;SDS011;23486;51.956;5.888;2023-08-01T12:41:03;4.80;;;0.50;;
37641;SDS011;23486;51.956;5.888;2023-08-01T12:43:29;3.47;;;0.45;;
37641;SDS011;23486;51.956;5.888;2023-08-01T12:45:54;5.00;;;0.60;;
37641;SDS011;23486;51.956;5.888;2023-08-01T12:48:23;6.78;;;0.63;;
37641;SDS011;23486;51.956;5.888;2023-08-01T12:50:49;4.43;;;0.70;;
37641;SDS011;23486;51.956;5.888;2023-08-01T12:53:15;4.22;;;0.50;;
37641;SDS011;23486;51.956;5.888;2023-08-01T12:55:44;4.82;;;0.80;;
37641;SDS011;23486;51.956;5.888;2023-08-01T12:58:14;8.52;;;0.88;;
37641;SDS011;23486;51.956;5.888;2023-08-01T13:00:40;5.32;;;0.77;;
37641;SDS011;23486;51.956;5.888;2023-08-01T13:03:06;6.18;;;0.63;;
37641;SDS011;23486;51.956;5.888;2023-08-01T13:05:35;6.97;;;1.05;;
37641;SDS011;23486;51.956;5.888;2023-08-01T13:08:02;5.85;;;0.68;;
37641;SDS011;23486;51.956;5.888;2023-08-01T13:10:31;4.47;;;0.63;;
37641;SDS011;23486;51.956;5.888;2023-08-01T13:12:57;5.45;;;0.75;;
37641;SDS011;23486;51.956;5.888;2023-08-01T13:15:23;4.55;;;0.60;;
37641;SDS011;23486;51.956;5.888;2023-08-01T13:17:49;6.28;;;0.50;;
37641;SDS011;23486;51.956;5.888;2023-08-01T13:20:15;6.28;;;0.70;;
37641;SDS011;23486;51.956;5.888;2023-08-01T13:22:41;3.92;;;0.60;;
37641;SDS011;23486;51.956;5.888;2023-08-01T13:25:07;5.57;;;0.60;;
37641;SDS011;23486;51.956;5.888;2023-08-01T13:27:36;5.57;;;0.70;;
37641;SDS011;23486;51.956;5.888;2023-08-01T13:30:02;8.82;;;1.00;;
37641;SDS011;23486;51.956;5.888;2023-08-01T13:32:28;4.82;;;0.68;;
37641;SDS011;23486;51.956;5.888;2023-08-01T13:34:54;9.15;;;0.85;;
37641;SDS011;23486;51.956;5.888;2023-08-01T13:37:19;5.18;;;0.60;;
37641;SDS011;23486;51.956;5.888;2023-08-01T13:39:45;4.13;;;0.55;;
37641;SDS011;23486;51.956;5.888;2023-08-01T13:42:11;5.32;;;0.50;;
37641;SDS011;23486;51.956;5.888;2023-08-01T13:44:37;2.90;;;0.70;;
37641;SDS011;23486;51.956;5.888;2023-08-01T13:47:03;5.78;;;0.60;;
37641;SDS011;23486;51.956;5.888;2023-08-01T13:49:30;5.38;;;0.60;;
37641;SDS011;23486;51.956;5.888;2023-08-01T13:51:55;4.05;;;0.57;;
37641;SDS011;23486;51.956;5.888;2023-08-01T13:54:21;2.67;;;0.50;;
37641;SDS011;23486;51.956;5.888;2023-08-01T13:56:46;3.53;;;0.52;;
37641;SDS011;23486;51.956;5.888;2023-08-01T13:59:13;4.97;;;0.82;;
37641;SDS011;23486;51.956;5.888;2023-08-01T14:01:39;6.20;;;0.60;;
37641;SDS011;23486;51.956;5.888;2023-08-01T14:04:04;4.00;;;0.60;;
37641;SDS011;23486;51.956;5.888;2023-08-01T14:06:30;3.80;;;0.60;;
37641;SDS011;23486;51.956;5.888;2023-08-01T14:08:56;5.95;;;0.57;;
37641;SDS011;23486;51.956;5.888;2023-08-01T14:11:21;5.18;;;0.65;;
37641;SDS011;23486;51.956;5.888;2023-08-01T14:13:47;4.65;;;0.40;;
37641;SDS011;23486;51.956;5.888;2023-08-01T14:16:13;5.20;;;0.98;;
37641;SDS011;23486;51.956;5.888;2023-08-01T14:18:38;6.30;;;0.73;;
37641;SDS011;23486;51.956;5.888;2023-08-01T14:21:04;3.97;;;0.55;;
37641;SDS011;23486;51.956;5.888;2023-08-01T14:23:30;4.18;;;0.65;;
37641;SDS011;23486;51.956;5.888;2023-08-01T14:25:57;7.32;;;0.88;;
37641;SDS011;23486;51.956;5.888;2023-08-01T14:28:23;4.07;;;0.55;;
37641;SDS011;23486;51.956;5.888;2023-08-01T14:30:48;5.13;;;0.50;;
37641;SDS011;23486;51.956;5.888;2023-08-01T14:33:15;3.80;;;0.50;;
37641;SDS011;23486;51.956;5.888;2023-08-01T14:35:41;3.15;;;0.60;;
37641;SDS011;23486;51.956;5.888;2023-08-01T14:38:07;6.55;;;0.50;;
37641;SDS011;23486;51.956;5.888;2023-08-01T14:40:33;4.05;;;0.40;;